createdAt,value
2018-07-25T00:02:18.698Z,91.90
2018-07-25T00:04:46.898Z,91.80
2018-07-25T00:07:15.081Z,92.00
2018-07-25T00:09:43.269Z,92.20
2018-07-25T00:12:11.453Z,92.10
2018-07-25T00:14:39.634Z,92.30
2018-07-25T00:17:07.817Z,92.50
2018-07-25T00:19:36.011Z,92.60
2018-07-25T00:22:04.192Z,92.40
2018-07-25T00:24:32.382Z,92.30
2018-07-25T00:27:00.594Z,92.70
2018-07-25T00:29:28.753Z,92.70
2018-07-25T00:31:56.926Z,92.90
2018-07-25T00:34:25.147Z,92.90
2018-07-25T00:36:53.304Z,92.90
2018-07-25T00:39:21.485Z,93.00
2018-07-25T00:41:49.678Z,92.90
2018-07-25T00:44:17.862Z,93.00
2018-07-25T00:46:46.058Z,93.00
2018-07-25T00:49:14.242Z,93.10
2018-07-25T00:51:42.449Z,93.30
2018-07-25T00:54:10.617Z,93.40
2018-07-25T00:56:38.806Z,93.40
2018-07-25T00:59:07.006Z,93.60
2018-07-25T01:01:35.191Z,93.60
2018-07-25T01:04:03.366Z,93.70
2018-07-25T01:06:31.554Z,93.90
2018-07-25T01:08:59.738Z,93.70
2018-07-25T01:11:27.925Z,93.80
2018-07-25T01:13:56.103Z,93.80
2018-07-25T01:16:24.297Z,93.80
2018-07-25T01:18:52.474Z,94.00
2018-07-25T01:21:20.668Z,94.10
2018-07-25T01:23:48.858Z,94.10
2018-07-25T01:26:17.065Z,94.10
2018-07-25T01:28:45.217Z,94.20
2018-07-25T01:31:13.434Z,94.20
2018-07-25T01:33:41.589Z,94.10
2018-07-25T01:36:09.794Z,94.20
2018-07-25T01:38:37.965Z,94.30
2018-07-25T01:41:06.066Z,94.40
2018-07-25T01:43:34.265Z,94.40
2018-07-25T01:46:02.441Z,94.90
2018-07-25T01:48:30.621Z,94.80
2018-07-25T01:50:59.037Z,94.70
2018-07-25T01:53:27.417Z,94.70
2018-07-25T01:55:55.596Z,94.80
2018-07-25T01:58:23.897Z,94.80
2018-07-25T02:00:52.069Z,95.00
2018-07-25T02:03:20.261Z,95.30
2018-07-25T02:05:48.353Z,95.30
2018-07-25T02:08:16.688Z,95.40
2018-07-25T02:10:45.350Z,95.20
2018-07-25T02:13:15.477Z,95.30
2018-07-25T02:15:43.889Z,95.20
2018-07-25T02:18:12.042Z,95.40
2018-07-25T02:20:40.221Z,95.10
2018-07-25T02:23:08.314Z,95.20
2018-07-25T02:25:36.496Z,95.40
2018-07-25T02:28:04.761Z,95.40
2018-07-25T02:30:32.878Z,95.40
2018-07-25T02:33:01.054Z,95.40
2018-07-25T02:35:29.139Z,95.40
2018-07-25T02:37:57.334Z,95.40
2018-07-25T02:40:26.437Z,95.40
2018-07-25T02:42:54.625Z,95.50
2018-07-25T02:45:22.821Z,95.60
2018-07-25T02:47:51.199Z,95.60
2018-07-25T02:50:20.310Z,95.60
2018-07-25T02:52:48.503Z,95.60
2018-07-25T02:55:16.709Z,95.40
2018-07-25T02:57:44.881Z,95.40
2018-07-25T03:00:12.970Z,95.30
2018-07-25T03:02:41.152Z,95.50
2018-07-25T03:05:09.335Z,95.60
2018-07-25T03:07:37.530Z,95.50
2018-07-25T03:10:05.979Z,95.60
2018-07-25T03:12:34.134Z,95.50
2018-07-25T03:15:02.305Z,96.00
2018-07-25T03:17:30.477Z,95.50
2018-07-25T03:19:58.653Z,95.40
2018-07-25T03:22:26.837Z,95.60
2018-07-25T03:24:54.920Z,95.60
2018-07-25T03:27:23.007Z,95.80
2018-07-25T03:29:51.181Z,95.70
2018-07-25T03:32:19.282Z,95.70
2018-07-25T03:34:47.473Z,95.80
2018-07-25T03:37:15.678Z,96.00
2018-07-25T03:39:43.830Z,95.80
2018-07-25T03:42:11.925Z,95.90
2018-07-25T03:44:40.099Z,96.00
2018-07-25T03:47:08.231Z,96.10
2018-07-25T03:49:36.364Z,96.30
2018-07-25T03:52:04.462Z,96.20
2018-07-25T03:54:33.817Z,96.20
2018-07-25T03:57:01.962Z,96.20
2018-07-25T03:59:30.170Z,96.60
2018-07-25T04:01:58.519Z,96.10
2018-07-25T04:04:26.627Z,96.30
2018-07-25T04:06:54.806Z,96.20
2018-07-25T04:09:22.882Z,96.20
2018-07-25T04:11:50.984Z,96.40
2018-07-25T04:14:19.290Z,96.50
2018-07-25T04:16:47.453Z,96.50
2018-07-25T04:19:15.997Z,96.50
2018-07-25T04:21:44.147Z,96.50
2018-07-25T04:24:12.327Z,96.40
2018-07-25T04:26:40.515Z,96.40
2018-07-25T04:29:08.712Z,96.50
2018-07-25T04:31:36.902Z,96.50
2018-07-25T04:34:05.151Z,96.40
2018-07-25T04:36:33.306Z,96.40
2018-07-25T04:39:01.450Z,96.50
2018-07-25T04:41:29.649Z,96.60
2018-07-25T04:43:57.822Z,96.50
2018-07-25T04:46:26.221Z,96.80
2018-07-25T04:48:54.209Z,96.80
2018-07-25T04:51:22.397Z,96.80
2018-07-25T04:53:50.573Z,97.10
2018-07-25T04:56:18.774Z,96.90
2018-07-25T04:58:46.957Z,96.80
2018-07-25T05:01:15.138Z,96.50
2018-07-25T05:03:43.318Z,96.70
2018-07-25T05:06:11.506Z,96.40
2018-07-25T05:08:39.697Z,96.40
2018-07-25T05:11:07.933Z,96.40
2018-07-25T05:13:36.074Z,96.20
2018-07-25T05:16:04.641Z,96.20
2018-07-25T05:21:00.814Z,96.40
2018-07-25T05:23:28.911Z,97.00
2018-07-25T05:25:56.989Z,97.10
2018-07-25T05:28:25.423Z,97.20
2018-07-25T05:30:53.606Z,97.40
2018-07-25T05:33:21.797Z,97.80
2018-07-25T05:35:49.947Z,98.00
2018-07-25T05:38:18.258Z,97.40
2018-07-25T05:40:46.214Z,97.00
2018-07-25T05:43:14.302Z,97.00
2018-07-25T05:45:42.483Z,96.90
2018-07-25T05:48:10.598Z,97.00
2018-07-25T05:50:38.821Z,96.70
2018-07-25T05:53:06.997Z,96.10
2018-07-25T05:55:35.144Z,95.80
2018-07-25T05:58:03.330Z,95.20
2018-07-25T06:00:32.417Z,94.90
2018-07-25T06:03:00.718Z,94.60
2018-07-25T06:05:28.697Z,94.40
2018-07-25T06:07:56.798Z,94.20
2018-07-25T06:10:25.921Z,94.20
2018-07-25T06:12:54.180Z,93.90
2018-07-25T06:15:22.335Z,93.90
2018-07-25T06:17:50.486Z,93.80
2018-07-25T06:20:19.673Z,93.60
2018-07-25T06:22:47.909Z,93.70
2018-07-25T06:25:16.066Z,93.70
2018-07-25T06:27:44.848Z,93.70
2018-07-25T06:30:12.922Z,93.60
2018-07-25T06:32:41.731Z,93.60
2018-07-25T06:35:09.914Z,93.60
2018-07-25T06:37:38.109Z,93.50
2018-07-25T06:40:07.161Z,93.50
2018-07-25T06:42:35.541Z,94.00
2018-07-25T06:45:04.478Z,93.60
2018-07-25T06:47:32.644Z,93.20
2018-07-25T06:50:00.786Z,93.30
2018-07-25T06:52:28.970Z,93.30
2018-07-25T06:54:57.202Z,93.10
2018-07-25T06:57:25.426Z,93.00
2018-07-25T06:59:53.528Z,93.30
2018-07-25T07:02:21.630Z,93.20
2018-07-25T07:04:49.795Z,93.00
2018-07-25T07:07:18.011Z,93.00
2018-07-25T07:09:46.177Z,93.50
2018-07-25T07:12:14.431Z,93.00
2018-07-25T07:14:42.546Z,92.70
2018-07-25T07:17:11.066Z,92.70
2018-07-25T07:19:39.248Z,92.40
2018-07-25T07:22:07.418Z,93.00
2018-07-25T07:24:35.611Z,93.10
2018-07-25T07:27:03.773Z,92.80
2018-07-25T07:29:31.878Z,92.80
2018-07-25T07:32:00.059Z,92.70
2018-07-25T07:34:28.246Z,92.70
2018-07-25T07:36:56.441Z,92.70
2018-07-25T07:39:24.690Z,92.60
2018-07-25T07:44:20.914Z,92.50
2018-07-25T07:46:49.078Z,91.50
2018-07-25T07:49:17.269Z,91.40
2018-07-25T07:51:45.457Z,91.70
2018-07-25T07:54:13.553Z,92.20
2018-07-25T07:56:41.716Z,91.20
2018-07-25T07:59:09.942Z,91.50
2018-07-25T08:01:38.086Z,91.30
2018-07-25T08:04:06.413Z,90.70
2018-07-25T08:06:34.639Z,90.30
2018-07-25T08:09:02.825Z,90.40
2018-07-25T08:11:31.042Z,90.50
2018-07-25T08:13:59.165Z,89.50
2018-07-25T08:16:27.350Z,87.50
2018-07-25T08:18:55.502Z,90.80
2018-07-25T08:21:23.686Z,87.40
2018-07-25T08:23:51.995Z,87.20
2018-07-25T08:26:20.171Z,86.10
2018-07-25T08:28:48.363Z,85.70
2018-07-25T08:31:16.642Z,85.80
2018-07-25T08:33:44.846Z,85.80
2018-07-25T08:36:12.921Z,85.00
2018-07-25T08:38:42.364Z,84.20
2018-07-25T08:41:10.535Z,85.20
2018-07-25T08:43:39.866Z,87.50
2018-07-25T08:46:09.182Z,85.50
2018-07-25T08:48:37.602Z,84.30
2018-07-25T08:51:05.797Z,82.60
2018-07-25T08:53:34.562Z,86.20
2018-07-25T08:56:02.697Z,82.80
2018-07-25T08:58:30.926Z,81.50
2018-07-25T09:00:59.618Z,78.30
2018-07-25T09:03:27.794Z,77.40
2018-07-25T09:05:55.953Z,77.90
2018-07-25T09:10:52.024Z,74.70
2018-07-25T09:13:20.357Z,75.90
2018-07-25T09:15:48.506Z,74.40
2018-07-25T09:18:16.623Z,73.20
2018-07-25T09:20:44.769Z,71.00
2018-07-25T09:23:12.870Z,74.20
2018-07-25T09:25:41.118Z,71.40
2018-07-25T09:28:09.170Z,72.00
2018-07-25T09:30:38.376Z,72.20
2018-07-25T09:33:06.575Z,73.10
2018-07-25T09:35:34.737Z,69.00
2018-07-25T09:38:02.957Z,73.60
2018-07-25T09:40:31.110Z,72.40
2018-07-25T09:42:59.318Z,66.90
2018-07-25T09:45:27.490Z,67.50
2018-07-25T09:47:55.667Z,70.40
2018-07-25T09:50:24.806Z,65.80
2018-07-25T09:52:53.004Z,70.00
2018-07-25T09:55:21.161Z,70.70
2018-07-25T09:57:49.334Z,63.90
2018-07-25T10:00:23.635Z,66.30
2018-07-25T10:02:52.345Z,62.10
2018-07-25T10:05:20.449Z,61.00
2018-07-25T10:07:48.640Z,65.40
2018-07-25T10:10:16.845Z,61.10
2018-07-25T10:12:45.085Z,65.90
2018-07-25T10:15:13.243Z,63.10
2018-07-25T10:17:41.404Z,62.80
2018-07-25T10:20:09.585Z,59.60
2018-07-25T10:22:37.754Z,58.10
2018-07-25T10:25:05.925Z,55.00
2018-07-25T10:27:34.239Z,54.40
2018-07-25T10:30:02.100Z,51.50
2018-07-25T10:32:30.193Z,52.80
2018-07-25T10:34:58.410Z,52.20
2018-07-25T10:37:26.573Z,55.20
2018-07-25T10:39:54.746Z,53.60
2018-07-25T10:42:23.289Z,53.80
2018-07-25T10:44:51.442Z,47.20
2018-07-25T10:47:19.694Z,53.20
2018-07-25T10:49:47.806Z,47.90
2018-07-25T10:52:15.986Z,48.80
2018-07-25T10:54:44.097Z,48.30
2018-07-25T10:57:12.169Z,47.20
2018-07-25T10:59:40.370Z,49.60
2018-07-25T11:02:08.548Z,49.60
2018-07-25T11:04:36.722Z,43.50
2018-07-25T11:07:04.898Z,42.30
2018-07-25T11:09:33.015Z,45.50
2018-07-25T11:12:01.113Z,47.80
2018-07-25T11:14:29.291Z,49.00
2018-07-25T11:16:57.446Z,45.60
2018-07-25T11:19:25.573Z,44.30
2018-07-25T11:21:53.726Z,44.10
2018-07-25T11:24:21.939Z,46.50
2018-07-25T11:26:50.199Z,42.50
2018-07-25T11:29:18.402Z,47.30
2018-07-25T11:31:46.480Z,43.60
2018-07-25T11:34:14.665Z,46.50
2018-07-25T11:36:42.862Z,42.60
2018-07-25T11:39:12.390Z,44.90
2018-07-25T11:41:40.596Z,41.90
2018-07-25T11:44:09.082Z,45.70
2018-07-25T11:46:37.244Z,40.40
2018-07-25T11:49:05.654Z,45.60
2018-07-25T11:51:33.814Z,46.20
2018-07-25T11:54:02.007Z,43.50
2018-07-25T11:56:30.322Z,42.60
2018-07-25T11:58:58.486Z,42.00
2018-07-25T12:01:26.692Z,45.30
2018-07-25T12:03:54.974Z,40.60
2018-07-25T12:06:23.357Z,41.30
2018-07-25T12:08:51.657Z,39.20
2018-07-25T12:11:19.834Z,39.70
2018-07-25T12:13:48.002Z,39.00
2018-07-25T12:16:16.286Z,39.40
2018-07-25T12:18:44.381Z,37.80
2018-07-25T12:21:12.611Z,37.20
2018-07-25T12:23:40.694Z,36.80
2018-07-25T12:26:08.846Z,38.70
2018-07-25T12:28:37.015Z,38.60
2018-07-25T12:31:05.195Z,39.00
2018-07-25T12:33:33.282Z,37.60
2018-07-25T12:36:01.380Z,37.60
2018-07-25T12:38:29.454Z,38.90
2018-07-25T12:40:57.546Z,38.30
2018-07-25T12:43:25.750Z,39.50
2018-07-25T12:45:53.922Z,35.50
2018-07-25T12:48:22.258Z,33.10
2018-07-25T12:50:50.529Z,33.30
2018-07-25T12:53:18.729Z,36.80
2018-07-25T12:55:46.758Z,38.00
2018-07-25T12:58:14.910Z,39.70
2018-07-25T13:00:43.044Z,37.00
2018-07-25T13:03:11.217Z,38.00
2018-07-25T13:05:39.310Z,38.00
2018-07-25T13:08:07.489Z,34.90
2018-07-25T13:10:35.660Z,37.60
2018-07-25T13:13:03.773Z,36.00
2018-07-25T13:15:31.963Z,33.30
2018-07-25T13:18:00.134Z,34.30
2018-07-25T13:20:28.222Z,34.50
2018-07-25T13:22:56.412Z,35.20
2018-07-25T13:25:24.513Z,37.00
2018-07-25T13:27:52.569Z,34.00
2018-07-25T13:30:21.697Z,32.80
2018-07-25T13:32:49.863Z,35.10
2018-07-25T13:37:45.953Z,31.50
2018-07-25T13:40:14.238Z,32.00
2018-07-25T13:42:42.351Z,33.10
2018-07-25T13:45:10.526Z,35.00
2018-07-25T13:47:38.702Z,32.80
2018-07-25T13:50:06.866Z,33.60
2018-07-25T13:52:34.958Z,35.70
2018-07-25T13:55:03.178Z,36.90
2018-07-25T13:57:31.329Z,38.20
2018-07-25T13:59:59.410Z,37.30
2018-07-25T14:02:27.507Z,37.10
2018-07-25T14:04:55.673Z,38.60
2018-07-25T14:07:23.853Z,37.50
2018-07-25T14:09:51.949Z,36.90
2018-07-25T14:12:20.051Z,37.50
2018-07-25T14:14:48.229Z,39.40
2018-07-25T14:17:16.444Z,38.30
2018-07-25T14:19:44.632Z,37.40
2018-07-25T14:22:12.810Z,38.90
2018-07-25T14:24:41.163Z,37.20
2018-07-25T14:27:09.503Z,39.90
2018-07-25T14:29:37.566Z,39.10
2018-07-25T14:32:06.038Z,38.60
2018-07-25T14:34:34.142Z,37.80
2018-07-25T14:37:02.370Z,38.10
2018-07-25T14:39:30.525Z,39.70
2018-07-25T14:41:58.733Z,41.00
2018-07-25T14:44:26.912Z,42.00
2018-07-25T14:46:55.136Z,42.90
2018-07-25T14:49:23.571Z,42.40
2018-07-25T14:51:51.763Z,42.90
2018-07-25T14:54:19.996Z,43.30
2018-07-25T14:56:48.182Z,40.20
2018-07-25T14:59:16.658Z,39.80
2018-07-25T15:01:44.826Z,43.40
2018-07-25T15:04:12.937Z,44.40
2018-07-25T15:06:41.098Z,43.70
2018-07-25T15:09:10.309Z,44.70
2018-07-25T15:11:38.482Z,39.70
2018-07-25T15:14:06.994Z,42.90
2018-07-25T15:16:35.175Z,41.40
2018-07-25T15:19:03.358Z,38.70
2018-07-25T15:21:31.530Z,37.30
2018-07-25T15:24:01.070Z,36.40
2018-07-25T15:26:29.749Z,35.60
2018-07-25T15:28:58.778Z,36.00
2018-07-25T15:31:27.078Z,35.90
2018-07-25T15:33:55.410Z,36.00
2018-07-25T15:36:40.718Z,38.80
2018-07-25T15:39:12.491Z,36.70
2018-07-25T15:41:40.978Z,35.60
2018-07-25T15:44:09.223Z,36.50
2018-07-25T15:46:37.731Z,36.00
2018-07-25T15:49:06.245Z,35.90
2018-07-25T15:51:34.441Z,35.50
2018-07-25T15:54:02.970Z,35.80
2018-07-25T15:56:31.135Z,35.30
2018-07-25T15:58:59.322Z,35.10
2018-07-25T16:01:27.579Z,35.20
2018-07-25T16:03:55.693Z,35.20
2018-07-25T16:06:24.015Z,35.60
2018-07-25T16:08:52.501Z,34.30
2018-07-25T16:11:20.705Z,34.30
2018-07-25T16:13:49.079Z,34.80
2018-07-25T16:16:17.746Z,36.90
2018-07-25T16:18:46.073Z,38.90
2018-07-25T16:21:14.225Z,40.90
2018-07-25T16:23:42.313Z,42.50
2018-07-25T16:26:10.386Z,43.60
2018-07-25T16:28:38.525Z,44.40
2018-07-25T16:31:07.315Z,43.60
2018-07-25T16:33:35.486Z,44.00
2018-07-25T16:36:03.691Z,42.80
2018-07-25T16:38:31.856Z,42.20
2018-07-25T16:40:59.942Z,40.70
2018-07-25T16:43:28.010Z,40.30
2018-07-25T16:45:56.086Z,40.20
2018-07-25T16:48:24.195Z,39.80
2018-07-25T16:50:52.406Z,40.50
2018-07-25T16:53:20.569Z,41.00
2018-07-25T16:55:48.743Z,41.50
2018-07-25T16:58:16.937Z,41.90
2018-07-25T17:00:45.115Z,42.40
2018-07-25T17:03:13.566Z,42.20
2018-07-25T17:05:41.685Z,42.40
2018-07-25T17:08:09.797Z,42.90
2018-07-25T17:10:37.979Z,42.60
2018-07-25T17:13:06.187Z,44.40
2018-07-25T17:15:34.334Z,42.90
2018-07-25T17:18:02.528Z,44.30
2018-07-25T17:20:30.605Z,42.40
2018-07-25T17:22:58.733Z,43.10
2018-07-25T17:25:26.958Z,44.10
2018-07-25T17:27:55.114Z,45.20
2018-07-25T17:30:23.278Z,43.50
2018-07-25T17:32:51.661Z,44.10
2018-07-25T17:35:19.781Z,46.60
2018-07-25T17:37:48.026Z,47.50
2018-07-25T17:40:16.201Z,47.80
2018-07-25T17:42:44.313Z,49.50
2018-07-25T17:45:12.706Z,47.30
2018-07-25T17:47:41.726Z,44.90
2018-07-25T17:50:10.313Z,44.90
2018-07-25T17:52:39.013Z,45.30
2018-07-25T17:55:07.225Z,46.80
2018-07-25T17:57:35.377Z,48.10
2018-07-25T18:00:04.755Z,48.70
2018-07-25T18:02:32.913Z,49.40
2018-07-25T18:05:01.058Z,49.50
2018-07-25T18:07:29.239Z,50.00
2018-07-25T18:09:57.434Z,51.80
2018-07-25T18:12:25.617Z,53.20
2018-07-25T18:14:53.903Z,54.40
2018-07-25T18:17:22.009Z,56.10
2018-07-25T18:19:50.214Z,56.30
2018-07-25T18:22:18.366Z,56.00
2018-07-25T18:24:46.661Z,56.60
2018-07-25T18:27:14.855Z,57.60
2018-07-25T18:29:43.013Z,59.60
2018-07-25T18:32:11.218Z,59.60
2018-07-25T18:34:39.410Z,59.30
2018-07-25T18:37:07.638Z,59.20
2018-07-25T18:39:35.776Z,58.20
2018-07-25T18:42:03.955Z,58.80
2018-07-25T18:44:32.046Z,58.70
2018-07-25T18:47:00.262Z,60.70
2018-07-25T18:49:28.423Z,60.20
2018-07-25T18:51:56.615Z,61.90
2018-07-25T18:54:25.657Z,64.20
2018-07-25T18:56:53.794Z,62.50
2018-07-25T18:59:22.005Z,64.90
2018-07-25T19:01:50.193Z,70.10
2018-07-25T19:04:18.358Z,72.30
2018-07-25T19:06:46.561Z,76.10
2018-07-25T19:09:16.185Z,77.00
2018-07-25T19:11:44.780Z,84.70
2018-07-25T19:14:18.555Z,89.40
2018-07-25T19:19:14.674Z,93.10
2018-07-25T19:21:42.952Z,93.40
2018-07-25T19:24:11.109Z,93.10
2018-07-25T19:26:40.218Z,93.90
2018-07-25T19:29:08.439Z,94.20
2018-07-25T19:31:36.605Z,95.20
2018-07-25T19:34:04.778Z,94.90
2018-07-25T19:36:32.854Z,94.80
2018-07-25T19:39:00.950Z,95.00
2018-07-25T19:41:29.261Z,95.40
2018-07-25T19:43:57.426Z,95.90
2018-07-25T19:46:25.510Z,96.00
2018-07-25T19:48:53.594Z,96.50
2018-07-25T19:51:21.770Z,97.00
2018-07-25T19:53:49.877Z,97.50
2018-07-25T19:56:18.042Z,97.70
2018-07-25T19:58:46.138Z,97.50
2018-07-25T20:01:14.329Z,97.70
2018-07-25T20:03:42.582Z,97.80
2018-07-25T20:06:10.772Z,98.00
2018-07-25T20:08:38.887Z,98.70
2018-07-25T20:11:07.425Z,98.20
2018-07-25T20:13:39.830Z,97.80
2018-07-25T20:16:07.873Z,97.30
2018-07-25T20:18:36.038Z,96.90
2018-07-25T20:21:04.315Z,96.20
2018-07-25T20:23:32.421Z,95.90
2018-07-25T20:26:00.617Z,95.20
2018-07-25T20:28:28.797Z,95.20
2018-07-25T20:30:57.005Z,95.00
2018-07-25T20:33:25.182Z,95.00
2018-07-25T20:35:53.377Z,94.80
2018-07-25T20:38:21.689Z,94.90
2018-07-25T20:40:49.826Z,94.00
2018-07-25T20:43:19.164Z,94.40
2018-07-25T20:45:47.317Z,94.20
2018-07-25T20:48:15.513Z,93.80
2018-07-25T20:50:43.590Z,93.30
2018-07-25T20:53:11.785Z,93.10
2018-07-25T20:55:39.971Z,93.20
2018-07-25T20:58:08.157Z,93.00
2018-07-25T21:00:36.768Z,92.90
2018-07-25T21:03:06.292Z,92.70
2018-07-25T21:05:34.800Z,92.50
2018-07-25T21:08:03.179Z,92.60
2018-07-25T21:10:31.601Z,93.20
2018-07-25T21:12:59.755Z,93.40
2018-07-25T21:15:27.930Z,93.50
2018-07-25T21:17:56.106Z,93.50
2018-07-25T21:20:24.394Z,93.60
2018-07-25T21:22:52.586Z,93.80
2018-07-25T21:25:20.788Z,93.70
2018-07-25T21:27:48.954Z,93.60
2018-07-25T21:30:17.182Z,93.60
2018-07-25T21:32:45.327Z,93.30
2018-07-25T21:35:13.548Z,93.40
2018-07-25T21:37:41.706Z,93.60
2018-07-25T21:40:09.895Z,92.80
2018-07-25T21:42:38.107Z,92.60
2018-07-25T21:45:06.519Z,92.20
2018-07-25T21:47:34.662Z,92.00
2018-07-25T21:50:02.850Z,91.90
2018-07-25T21:52:31.047Z,91.80
2018-07-25T21:54:59.227Z,91.90
2018-07-25T21:57:27.430Z,91.60
2018-07-25T21:59:55.595Z,91.80
2018-07-25T22:02:23.782Z,91.70
2018-07-25T22:04:51.974Z,91.50
2018-07-25T22:07:20.162Z,91.40
2018-07-25T22:09:48.345Z,91.40
2018-07-25T22:12:16.555Z,91.40
2018-07-25T22:14:44.715Z,91.40
2018-07-25T22:17:12.902Z,91.70
2018-07-25T22:19:41.122Z,92.00
2018-07-25T22:22:09.272Z,92.00
2018-07-25T22:24:37.454Z,91.70
2018-07-25T22:27:05.538Z,91.60
2018-07-25T22:29:33.626Z,91.50
2018-07-25T22:32:01.811Z,91.60
2018-07-25T22:34:29.902Z,91.70
2018-07-25T22:36:58.073Z,91.70
2018-07-25T22:41:54.040Z,91.70
2018-07-25T22:44:22.130Z,92.10
2018-07-25T22:46:50.227Z,91.90
2018-07-25T22:49:18.401Z,91.90
2018-07-25T22:51:46.473Z,92.10
2018-07-25T22:54:14.587Z,92.10
2018-07-25T22:56:42.757Z,92.30
2018-07-25T22:59:10.939Z,92.30
2018-07-25T23:01:39.035Z,92.50
2018-07-25T23:04:07.222Z,92.20
2018-07-25T23:06:35.421Z,92.20
2018-07-25T23:09:05.628Z,92.20
2018-07-25T23:11:33.726Z,92.00
2018-07-25T23:14:01.897Z,91.80
2018-07-25T23:16:29.989Z,91.80
2018-07-25T23:18:58.086Z,91.80
2018-07-25T23:21:26.274Z,91.80
2018-07-25T23:23:54.452Z,91.80
2018-07-25T23:26:22.556Z,91.80
2018-07-25T23:28:50.732Z,91.80
2018-07-25T23:31:18.922Z,91.90
2018-07-25T23:33:47.102Z,91.80
2018-07-25T23:36:15.294Z,91.80
2018-07-25T23:38:43.474Z,92.10
2018-07-25T23:41:11.686Z,91.80
2018-07-25T23:43:40.874Z,91.90
2018-07-25T23:46:09.065Z,91.90
2018-07-25T23:48:37.261Z,92.00
2018-07-25T23:51:05.450Z,92.10
2018-07-25T23:53:33.633Z,92.20
2018-07-25T23:56:01.866Z,92.40
2018-07-25T23:58:29.989Z,92.30
